Time;durP1;ratioP1;P1;durP2;ratioP2;P2;SDS_P1;SDS_P2;PMS_P1;PMS_P2;Temp;Humidity;BMP_temperature;BMP_pressure;BME280_temperature;BME280_humidity;BME280_pressure;Samples;Min_cycle;Max_cycle;Signal;HPM_P1;HPM_P2
2022/11/02 00:02:08;;;;;;;6.82;2.38;;;13.20;99.90;;;;;;5058994;28;20032;-28
2022/11/02 00:04:33;;;;;;;8.55;2.42;;;13.10;99.90;;;;;;5049407;28;20048;-29
2022/11/02 00:06:59;;;;;;;6.57;1.83;;;13.10;99.90;;;;;;5050786;28;20461;-29
2022/11/02 00:09:25;;;;;;;4.18;1.77;;;13.00;99.90;;;;;;5031849;28;20036;-28
2022/11/02 00:11:50;;;;;;;7.90;1.58;;;13.00;99.90;;;;;;5046205;28;20029;-28
2022/11/02 00:14:16;;;;;;;9.48;1.88;;;12.90;99.90;;;;;;5051384;28;20083;-29
2022/11/02 00:16:42;;;;;;;10.02;2.15;;;12.90;99.90;;;;;;5052547;28;20039;-29
2022/11/02 00:19:08;;;;;;;4.97;1.50;;;12.80;99.90;;;;;;5046147;28;20505;-30
2022/11/02 00:21:35;;;;;;;6.18;1.90;;;12.80;99.90;;;;;;5034969;28;20048;-28
2022/11/02 00:24:02;;;;;;;4.10;1.48;;;12.80;99.90;;;;;;5053285;28;20123;-28
2022/11/02 00:26:28;;;;;;;6.60;1.60;;;12.70;99.90;;;;;;5034218;28;20040;-28
2022/11/02 00:28:54;;;;;;;4.20;1.50;;;12.70;99.90;;;;;;5041456;28;20037;-28
2022/11/02 00:31:20;;;;;;;5.47;1.80;;;12.70;99.90;;;;;;5049620;28;20036;-29
2022/11/02 00:33:46;;;;;;;6.38;1.88;;;12.70;99.90;;;;;;5048650;28;20033;-29
2022/11/02 00:36:12;;;;;;;6.60;1.73;;;12.60;99.90;;;;;;5041717;28;20446;-29
2022/11/02 00:38:37;;;;;;;3.58;1.50;;;12.60;99.90;;;;;;5041754;28;20087;-29
2022/11/02 00:41:06;;;;;;;9.43;1.92;;;12.60;99.90;;;;;;5033328;28;20068;-29
2022/11/02 00:43:32;;;;;;;6.20;1.73;;;12.60;99.90;;;;;;5053764;28;20087;-29
2022/11/02 00:45:58;;;;;;;6.72;1.88;;;12.60;99.90;;;;;;5051896;28;20358;-30
2022/11/02 00:48:23;;;;;;;8.77;2.42;;;12.60;99.90;;;;;;5044218;28;20037;-29
2022/11/02 00:50:49;;;;;;;8.88;2.83;;;12.60;99.90;;;;;;5040217;28;20103;-29
2022/11/02 00:53:15;;;;;;;12.30;2.50;;;12.60;99.90;;;;;;5053261;28;20075;-29
2022/11/02 00:55:40;;;;;;;8.43;2.45;;;12.60;99.90;;;;;;5051282;28;20140;-29
2022/11/02 00:58:06;;;;;;;11.05;2.78;;;12.60;99.90;;;;;;5044857;28;20036;-29
2022/11/02 01:00:32;;;;;;;11.27;2.88;;;12.60;99.90;;;;;;5044244;28;20498;-29
2022/11/02 01:03:01;;;;;;;8.30;2.53;;;12.50;99.90;;;;;;5039602;28;20082;-29
2022/11/02 01:05:27;;;;;;;8.60;2.75;;;12.50;99.90;;;;;;5061228;28;20037;-29
2022/11/02 01:07:53;;;;;;;7.38;2.55;;;12.50;99.90;;;;;;5045194;28;20055;-29
2022/11/02 01:10:19;;;;;;;12.02;3.22;;;12.50;99.90;;;;;;5043522;28;20483;-29
2022/11/02 01:12:45;;;;;;;8.60;2.28;;;12.50;99.90;;;;;;5045088;28;20097;-29
2022/11/02 01:15:10;;;;;;;7.88;2.15;;;12.50;99.90;;;;;;5043877;28;20036;-29
2022/11/02 01:17:37;;;;;;;8.25;2.60;;;12.40;99.90;;;;;;5047270;28;20498;-29
2022/11/02 01:20:03;;;;;;;11.52;2.70;;;12.40;99.90;;;;;;5044847;28;20036;-29
2022/11/02 01:22:30;;;;;;;8.48;2.80;;;12.40;99.90;;;;;;5048099;28;20036;-29
2022/11/02 01:24:55;;;;;;;6.75;2.30;;;12.40;99.90;;;;;;5051575;28;20028;-29
2022/11/02 01:27:21;;;;;;;10.15;2.60;;;12.40;99.90;;;;;;5051460;28;20090;-29
2022/11/02 01:29:47;;;;;;;11.95;2.40;;;12.40;99.90;;;;;;5053279;28;20095;-29
2022/11/02 01:32:12;;;;;;;7.50;2.25;;;12.40;99.90;;;;;;5032593;28;20040;-29
2022/11/02 01:34:38;;;;;;;8.27;2.60;;;12.40;99.90;;;;;;5042948;28;20028;-29
2022/11/02 01:37:04;;;;;;;6.85;2.00;;;12.40;99.90;;;;;;5049683;28;20060;-29
2022/11/02 01:39:30;;;;;;;9.15;2.45;;;12.40;99.90;;;;;;5053917;28;20127;-29
2022/11/02 01:41:55;;;;;;;7.90;2.20;;;12.40;99.90;;;;;;5051279;28;20112;-29
2022/11/02 01:44:36;;;;;;;6.88;3.03;;;12.40;99.90;;;;;;5051406;28;20090;-29
2022/11/02 01:47:17;;;;;;;6.90;2.83;;;12.30;99.90;;;;;;5067468;28;20510;-29
2022/11/02 01:49:46;;;;;;;11.70;2.33;;;12.30;99.90;;;;;;5067780;28;20037;-29
2022/11/02 01:52:23;;;;;;;9.63;2.20;;;12.30;99.90;;;;;;5063565;28;20051;-29
2022/11/02 01:54:58;;;;;;;9.65;2.50;;;12.30;99.90;;;;;;5037628;28;20036;-29
2022/11/02 01:57:26;;;;;;;7.47;2.65;;;12.30;99.90;;;;;;5047680;28;20095;-29
2022/11/02 02:00:09;;;;;;;7.20;2.20;;;12.40;99.90;;;;;;5043300;28;20048;-29
2022/11/02 02:02:41;;;;;;;11.02;2.30;;;12.50;99.90;;;;;;5058093;28;20102;-29
2022/11/02 02:05:11;;;;;;;7.60;2.13;;;12.50;99.90;;;;;;5044143;28;20037;-29
2022/11/02 02:07:38;;;;;;;8.77;2.33;;;12.50;99.90;;;;;;5058405;28;20041;-29
2022/11/02 02:10:06;;;;;;;12.02;2.72;;;12.60;99.90;;;;;;5055369;28;20028;-29
2022/11/02 02:12:33;;;;;;;5.78;2.33;;;12.60;99.90;;;;;;5050903;28;20421;-30
2022/11/02 02:14:59;;;;;;;8.18;2.13;;;12.60;99.90;;;;;;5061571;28;20107;-30
2022/11/02 02:17:43;;;;;;;8.52;2.15;;;12.70;99.90;;;;;;5039133;28;20144;-29
2022/11/02 02:20:15;;;;;;;9.27;2.63;;;12.70;99.90;;;;;;5048039;28;20056;-29
2022/11/02 02:22:44;;;;;;;8.07;3.00;;;12.80;99.90;;;;;;5064662;28;20393;-29
2022/11/02 02:25:39;;;;;;;15.73;2.38;;;12.80;99.90;;;;;;5054942;28;20135;-29
2022/11/02 02:28:30;;;;;;;9.32;2.38;;;12.90;99.90;;;;;;5052565;28;20037;-30
2022/11/02 02:31:31;;;;;;;6.28;1.80;;;12.90;99.90;;;;;;5049624;28;20051;-29
2022/11/02 02:34:21;;;;;;;7.93;2.67;;;12.90;99.90;;;;;;5047168;28;20029;-29
2022/11/02 02:36:57;;;;;;;12.02;2.55;;;12.80;99.90;;;;;;5037775;28;20041;-29
2022/11/02 02:39:38;;;;;;;8.57;2.40;;;12.70;99.90;;;;;;5052400;28;20167;-29
2022/11/02 02:42:10;;;;;;;5.22;2.20;;;12.50;99.90;;;;;;5047226;28;20523;-29
2022/11/02 02:44:40;;;;;;;6.18;2.50;;;12.40;99.90;;;;;;5045210;28;20039;-29
2022/11/02 02:47:15;;;;;;;7.57;2.75;;;12.20;99.90;;;;;;5042505;28;20397;-29
2022/11/02 02:49:53;;;;;;;8.75;2.40;;;12.20;99.90;;;;;;5044170;28;20090;-29
2022/11/02 02:52:22;;;;;;;6.47;3.30;;;12.20;99.90;;;;;;5048291;28;20517;-29
2022/11/02 02:54:50;;;;;;;8.60;2.83;;;12.20;99.90;;;;;;5042214;28;20337;-29
2022/11/02 02:57:20;;;;;;;5.90;2.33;;;12.10;99.90;;;;;;5051569;28;20036;-29
2022/11/02 02:59:47;;;;;;;6.32;2.80;;;12.10;99.90;;;;;;5050534;28;20573;-29
2022/11/02 03:02:40;;;;;;;9.13;3.00;;;12.10;99.90;;;;;;5050463;28;20055;-29
2022/11/02 03:05:23;;;;;;;5.82;1.63;;;12.10;99.90;;;;;;5046651;28;20056;-29
2022/11/02 03:07:49;;;;;;;2.80;1.67;;;12.00;99.90;;;;;;5039310;28;20040;-29
2022/11/02 03:11:01;;;;;;;4.45;1.33;;;12.00;99.90;;;;;;5045387;28;20032;-29
2022/11/02 03:13:58;;;;;;;4.72;1.20;;;12.00;99.90;;;;;;5048516;28;20045;-29
2022/11/02 03:16:39;;;;;;;3.85;0.90;;;11.90;99.90;;;;;;5052541;28;20044;-29
2022/11/02 03:19:30;;;;;;;4.40;1.10;;;11.70;99.90;;;;;;5065319;28;20097;-29
2022/11/02 03:22:03;;;;;;;4.03;0.73;;;11.60;99.90;;;;;;5037779;28;20403;-29
2022/11/02 03:24:38;;;;;;;2.53;0.73;;;11.40;99.90;;;;;;5050281;28;20033;-29
2022/11/02 03:27:14;;;;;;;3.53;1.00;;;11.40;99.90;;;;;;5046223;28;20106;-29
2022/11/02 03:29:52;;;;;;;2.35;0.93;;;11.30;99.90;;;;;;5046027;28;20478;-29
2022/11/02 03:32:52;;;;;;;2.78;1.15;;;11.30;99.90;;;;;;5045730;28;20033;-29
2022/11/02 03:35:27;;;;;;;3.47;1.00;;;11.20;99.90;;;;;;5025755;28;20383;-29
2022/11/02 03:38:12;;;;;;;5.45;0.90;;;11.10;99.90;;;;;;5050744;28;20033;-29
2022/11/02 03:40:43;;;;;;;4.60;1.17;;;11.10;99.90;;;;;;5034095;28;20501;-29
2022/11/02 03:43:11;;;;;;;3.47;1.05;;;11.00;99.90;;;;;;5040954;28;20051;-29
2022/11/02 03:45:41;;;;;;;5.97;1.10;;;11.00;99.90;;;;;;5042506;28;20102;-29
2022/11/02 03:48:10;;;;;;;3.05;0.90;;;11.00;99.90;;;;;;5042846;28;20036;-29
2022/11/02 03:50:40;;;;;;;3.78;1.10;;;11.00;99.90;;;;;;5045243;28;20071;-29
2022/11/02 03:53:11;;;;;;;4.90;1.40;;;11.00;99.90;;;;;;5051434;28;20449;-29
2022/11/02 03:55:45;;;;;;;2.65;1.00;;;11.00;99.90;;;;;;5036651;28;20041;-29
2022/11/02 03:58:11;;;;;;;3.30;0.80;;;10.90;99.90;;;;;;5053795;28;20509;-29
2022/11/02 04:00:42;;;;;;;4.80;1.58;;;10.90;99.90;;;;;;5053488;28;20395;-29
2022/11/02 04:03:10;;;;;;;2.97;1.27;;;10.90;99.90;;;;;;5053186;28;20494;-29
2022/11/02 04:05:36;;;;;;;4.20;1.60;;;10.90;99.90;;;;;;5046132;28;20036;-29
2022/11/02 04:08:21;;;;;;;5.88;1.80;;;10.90;99.90;;;;;;5046716;28;20048;-30
2022/11/02 04:16:17;;;;;;;6.45;2.00;;;10.90;99.90;;;;;;5063406;28;20047;-29
2022/11/02 04:21:28;;;;;;;6.38;1.70;;;10.80;99.90;;;;;;5061804;28;20117;-29
2022/11/02 04:26:38;;;;;;;3.38;1.35;;;10.80;99.90;;;;;;5070321;28;20040;-29
2022/11/02 04:29:04;;;;;;;6.20;1.70;;;10.90;99.90;;;;;;5052379;28;20048;-29
2022/11/02 04:31:30;;;;;;;4.10;1.80;;;10.90;99.90;;;;;;5052405;28;20473;-29
2022/11/02 04:33:59;;;;;;;7.32;1.70;;;10.90;99.90;;;;;;5053361;28;20405;-29
2022/11/02 04:36:28;;;;;;;5.72;1.50;;;10.90;99.90;;;;;;5052588;28;20166;-29
2022/11/02 04:38:53;;;;;;;7.28;2.00;;;11.00;99.90;;;;;;5053510;28;20079;-29
2022/11/02 04:44:05;;;;;;;7.32;1.75;;;11.10;99.90;;;;;;5063128;28;20036;-29
2022/11/02 04:46:34;;;;;;;7.45;1.77;;;11.20;99.90;;;;;;5053356;28;20032;-29
2022/11/02 04:49:00;;;;;;;7.38;1.70;;;11.20;99.90;;;;;;5070908;28;20041;-29
2022/11/02 04:51:27;;;;;;;7.75;1.83;;;11.20;99.90;;;;;;5051364;28;20448;-29
2022/11/02 04:53:55;;;;;;;6.00;1.77;;;11.30;99.90;;;;;;5041535;28;20029;-29
2022/11/02 04:56:21;;;;;;;9.07;1.70;;;11.30;99.90;;;;;;5039860;28;20076;-29
2022/11/02 04:58:51;;;;;;;5.53;1.52;;;11.30;99.90;;;;;;5051002;28;20036;-29
2022/11/02 05:01:18;;;;;;;4.97;1.95;;;11.30;99.90;;;;;;5040199;28;20051;-29
2022/11/02 05:03:48;;;;;;;6.00;1.88;;;11.30;99.90;;;;;;5047492;28;20037;-29
2022/11/02 05:06:16;;;;;;;6.47;1.90;;;11.20;99.90;;;;;;5042904;28;20029;-29
2022/11/02 05:08:42;;;;;;;5.88;1.88;;;11.20;99.90;;;;;;5045733;28;20498;-29
2022/11/02 05:11:09;;;;;;;8.38;1.92;;;11.20;99.90;;;;;;5050457;28;20052;-30
2022/11/02 05:13:37;;;;;;;5.25;1.90;;;11.20;99.90;;;;;;5057013;28;20040;-29
2022/11/02 05:16:03;;;;;;;14.75;4.00;;;11.30;99.90;;;;;;5055195;28;20378;-29
2022/11/02 05:18:29;;;;;;;14.93;3.40;;;11.20;99.90;;;;;;5047114;28;20041;-29
2022/11/02 05:20:57;;;;;;;9.77;3.60;;;11.20;99.90;;;;;;5044462;28;20083;-30
2022/11/02 05:23:23;;;;;;;5.90;2.25;;;11.30;99.90;;;;;;5038043;28;20033;-29
2022/11/02 05:25:57;;;;;;;6.97;2.63;;;11.30;99.90;;;;;;5048857;28;20398;-29
2022/11/02 05:28:24;;;;;;;9.20;2.10;;;11.40;99.90;;;;;;5067063;28;20409;-29
2022/11/02 05:30:50;;;;;;;7.90;2.75;;;11.40;99.90;;;;;;5052575;28;20341;-29
2022/11/02 05:33:16;;;;;;;9.15;2.47;;;11.40;99.90;;;;;;5050115;28;20040;-29
2022/11/02 05:35:42;;;;;;;13.18;4.05;;;11.40;99.90;;;;;;5045593;28;20041;-29
2022/11/02 05:38:08;;;;;;;11.43;2.33;;;11.40;99.90;;;;;;5045036;28;20032;-29
2022/11/02 05:40:36;;;;;;;9.80;4.82;;;11.40;99.90;;;;;;5043089;28;20041;-29
2022/11/02 05:43:03;;;;;;;8.73;2.42;;;11.40;99.90;;;;;;5044273;28;20115;-29
2022/11/02 05:45:29;;;;;;;8.65;4.50;;;11.30;99.90;;;;;;5047967;28;20041;-29
2022/11/02 05:47:54;;;;;;;8.68;3.17;;;11.20;99.90;;;;;;5050495;28;20039;-29
2022/11/02 05:50:20;;;;;;;12.80;3.08;;;11.20;99.90;;;;;;5045416;28;20112;-29
2022/11/02 05:52:46;;;;;;;7.75;2.42;;;11.20;99.90;;;;;;5050662;28;20032;-29
2022/11/02 05:55:13;;;;;;;11.27;2.80;;;11.10;99.90;;;;;;5053720;28;20040;-29
2022/11/02 05:57:39;;;;;;;9.18;3.33;;;11.10;99.90;;;;;;5052186;28;20078;-29
2022/11/02 06:00:06;;;;;;;6.32;2.20;;;11.00;99.90;;;;;;5055802;28;20440;-28
2022/11/02 06:02:35;;;;;;;8.55;3.13;;;11.10;99.90;;;;;;5051419;28;20040;-30
2022/11/02 06:05:01;;;;;;;9.90;2.95;;;11.10;99.90;;;;;;5021810;28;20055;-28
2022/11/02 06:07:27;;;;;;;9.23;2.83;;;11.10;99.90;;;;;;5050191;28;20112;-29
2022/11/02 06:09:53;;;;;;;11.73;3.40;;;11.00;99.90;;;;;;5049527;28;20486;-30
2022/11/02 06:12:19;;;;;;;10.30;2.60;;;11.00;99.90;;;;;;5053305;28;20072;-30
2022/11/02 06:14:44;;;;;;;8.63;2.85;;;11.00;99.90;;;;;;5049410;28;20094;-29
2022/11/02 06:17:10;;;;;;;7.75;2.58;;;11.00;99.90;;;;;;5053730;28;20036;-30
2022/11/02 06:19:36;;;;;;;11.95;2.53;;;11.00;99.90;;;;;;5054983;28;20445;-30
2022/11/02 06:22:02;;;;;;;9.68;2.50;;;11.00;99.90;;;;;;5055892;28;20382;-30
2022/11/02 06:24:28;;;;;;;9.07;2.38;;;11.00;99.90;;;;;;5054784;28;20493;-30
2022/11/02 06:26:54;;;;;;;11.77;2.47;;;11.00;99.90;;;;;;5035981;28;20039;-29
2022/11/02 06:29:20;;;;;;;11.48;3.42;;;11.10;99.90;;;;;;5069956;28;20486;-29
2022/11/02 06:31:45;;;;;;;11.65;3.03;;;11.00;99.90;;;;;;5054954;28;20051;-29
2022/11/02 06:34:11;;;;;;;11.00;3.50;;;11.00;99.90;;;;;;5052178;28;20043;-29
2022/11/02 06:36:37;;;;;;;9.80;3.03;;;10.90;99.90;;;;;;5048461;28;20028;-29
2022/11/02 06:39:03;;;;;;;11.27;3.20;;;10.90;99.90;;;;;;5056997;28;20036;-29
2022/11/02 06:41:28;;;;;;;11.80;4.28;;;10.90;99.90;;;;;;5037359;28;20094;-29
2022/11/02 06:43:55;;;;;;;11.85;3.78;;;10.80;99.90;;;;;;5063312;28;20036;-29
2022/11/02 06:46:21;;;;;;;11.52;3.38;;;10.80;99.90;;;;;;5057131;28;20111;-29
2022/11/02 06:48:47;;;;;;;16.02;3.88;;;10.80;99.90;;;;;;5023286;28;20116;-29
2022/11/02 06:51:13;;;;;;;9.50;3.20;;;10.80;99.90;;;;;;5041276;28;20045;-29
2022/11/02 06:53:39;;;;;;;10.05;3.30;;;10.70;99.90;;;;;;5044221;28;20050;-29
2022/11/02 06:56:05;;;;;;;12.43;4.32;;;10.70;99.90;;;;;;5033737;28;20033;-29
2022/11/02 06:58:31;;;;;;;12.27;3.35;;;10.70;99.90;;;;;;5047581;28;20567;-29
2022/11/02 07:01:08;;;;;;;12.10;2.92;;;10.70;99.90;;;;;;5035835;28;20115;-29
2022/11/02 07:03:35;;;;;;;13.43;3.00;;;10.70;99.90;;;;;;5045534;28;20041;-29
2022/11/02 07:06:01;;;;;;;9.30;2.75;;;10.70;99.90;;;;;;5041558;28;20441;-29
2022/11/02 07:08:28;;;;;;;10.45;2.88;;;10.70;99.90;;;;;;5046351;28;20508;-29
2022/11/02 07:10:54;;;;;;;11.52;3.22;;;10.70;99.90;;;;;;5051779;28;20115;-29
2022/11/02 07:13:20;;;;;;;14.00;3.28;;;10.70;99.90;;;;;;5046194;28;20147;-29
2022/11/02 07:15:46;;;;;;;9.88;2.80;;;10.70;99.90;;;;;;5054864;28;20115;-29
2022/11/02 07:18:12;;;;;;;6.13;2.47;;;10.60;99.90;;;;;;5065022;28;20106;-30
2022/11/02 07:20:38;;;;;;;10.50;2.92;;;10.60;99.90;;;;;;5049932;28;20037;-29
2022/11/02 07:23:04;;;;;;;10.50;3.20;;;10.70;99.90;;;;;;5048687;28;20120;-29
2022/11/02 07:25:31;;;;;;;12.32;4.00;;;10.80;99.90;;;;;;5046891;28;20545;-29
2022/11/02 07:27:59;;;;;;;13.23;3.30;;;10.90;99.90;;;;;;5039359;28;20040;-29
2022/11/02 07:30:25;;;;;;;12.10;3.10;;;11.00;99.90;;;;;;5046449;28;20040;-29
2022/11/02 07:32:51;;;;;;;13.15;4.32;;;11.10;99.90;;;;;;5041846;28;20391;-29
2022/11/02 07:35:17;;;;;;;12.85;3.30;;;11.20;99.90;;;;;;5070549;28;20032;-29
2022/11/02 07:37:43;;;;;;;14.57;3.25;;;11.30;99.90;;;;;;5039193;28;20028;-29
2022/11/02 07:40:11;;;;;;;9.98;2.88;;;11.40;99.90;;;;;;5037033;28;20041;-29
2022/11/02 07:42:44;;;;;;;9.32;2.38;;;11.40;99.90;;;;;;5036940;28;20075;-29
2022/11/02 07:45:11;;;;;;;10.93;3.05;;;11.50;99.90;;;;;;5044594;28;20105;-30
2022/11/02 07:47:44;;;;;;;14.63;3.13;;;11.60;99.90;;;;;;5053090;28;20044;-29
2022/11/02 07:50:11;;;;;;;12.13;3.30;;;11.60;99.90;;;;;;5038616;28;20037;-29
2022/11/02 07:52:57;;;;;;;12.15;2.60;;;11.70;99.90;;;;;;5046205;28;20055;-29
2022/11/02 07:55:28;;;;;;;7.60;2.53;;;11.70;99.90;;;;;;5041454;28;20032;-29
2022/11/02 07:58:09;;;;;;;8.70;2.08;;;11.80;99.90;;;;;;5042008;28;20059;-29
2022/11/02 08:00:38;;;;;;;12.73;2.90;;;11.90;99.90;;;;;;5038889;28;20136;-29
2022/11/02 08:03:05;;;;;;;8.52;1.98;;;11.90;99.90;;;;;;5042687;28;20069;-29
2022/11/02 08:05:37;;;;;;;10.05;2.33;;;11.90;99.90;;;;;;5047930;28;20063;-29
2022/11/02 08:08:10;;;;;;;12.18;1.95;;;11.90;99.90;;;;;;5053542;28;20044;-30
2022/11/02 08:10:36;;;;;;;10.73;2.33;;;11.90;99.90;;;;;;5067156;28;20145;-30
2022/11/02 08:13:02;;;;;;;9.20;2.33;;;11.90;99.90;;;;;;5051304;28;20044;-30
2022/11/02 08:15:28;;;;;;;6.38;2.20;;;12.00;99.90;;;;;;5050074;28;20032;-30
2022/11/02 08:18:02;;;;;;;9.93;1.88;;;12.00;99.90;;;;;;5046348;28;20028;-30
2022/11/02 08:20:29;;;;;;;11.43;3.13;;;12.00;99.90;;;;;;5050257;28;20037;-30
2022/11/02 08:22:54;;;;;;;7.13;1.80;;;12.10;99.90;;;;;;5048684;28;20028;-30
2022/11/02 08:25:20;;;;;;;8.63;1.90;;;12.10;99.90;;;;;;5044609;28;20129;-30
2022/11/02 08:27:46;;;;;;;9.57;2.38;;;12.20;99.90;;;;;;5051644;28;20040;-30
2022/11/02 08:30:12;;;;;;;8.98;1.95;;;12.30;99.90;;;;;;5051901;28;20064;-30
2022/11/02 08:32:38;;;;;;;5.18;1.73;;;12.70;99.90;;;;;;5046631;28;20088;-30
2022/11/02 08:35:04;;;;;;;7.63;2.30;;;13.00;99.90;;;;;;5044985;28;20025;-30
2022/11/02 08:37:30;;;;;;;6.10;1.80;;;13.20;99.90;;;;;;5046727;28;20044;-30
2022/11/02 08:39:55;;;;;;;7.68;1.98;;;13.20;99.90;;;;;;5053295;28;20476;-30
2022/11/02 08:42:21;;;;;;;10.30;1.90;;;13.00;99.90;;;;;;5029293;28;20051;-30
2022/11/02 08:44:47;;;;;;;8.30;1.90;;;12.80;99.90;;;;;;5046020;28;20041;-30
2022/11/02 08:47:14;;;;;;;7.07;2.42;;;12.70;99.90;;;;;;5070009;28;20490;-30
2022/11/02 08:49:40;;;;;;;5.55;1.85;;;12.90;99.90;;;;;;5042255;28;20390;-30
2022/11/02 08:52:06;;;;;;;9.65;2.63;;;13.20;99.90;;;;;;5032125;28;20273;-30
2022/11/02 08:54:32;;;;;;;8.02;2.45;;;13.40;99.90;;;;;;5048020;28;20059;-30
2022/11/02 08:56:58;;;;;;;9.18;2.70;;;13.80;99.90;;;;;;5053906;28;20044;-30
2022/11/02 08:59:24;;;;;;;6.88;2.35;;;14.00;99.90;;;;;;5038440;28;20509;-30
2022/11/02 09:01:49;;;;;;;6.38;1.80;;;14.00;99.90;;;;;;5044790;28;20087;-30
2022/11/02 09:04:15;;;;;;;6.22;1.63;;;13.70;99.90;;;;;;5036357;28;20039;-30
2022/11/02 09:06:41;;;;;;;5.30;1.70;;;13.50;99.90;;;;;;5049539;28;20040;-30
2022/11/02 09:09:06;;;;;;;8.02;1.88;;;13.40;99.90;;;;;;5050810;28;20037;-30
2022/11/02 09:11:32;;;;;;;5.82;1.75;;;13.60;99.90;;;;;;5039725;28;20454;-31
2022/11/02 09:13:58;;;;;;;6.65;2.50;;;13.80;99.90;;;;;;5040649;28;20037;-31
2022/11/02 09:16:24;;;;;;;8.75;1.90;;;13.90;99.90;;;;;;5024199;28;20563;-30
2022/11/02 09:18:50;;;;;;;6.32;2.10;;;13.70;99.90;;;;;;5053564;28;20401;-30
2022/11/02 09:21:15;;;;;;;6.68;1.90;;;13.70;99.90;;;;;;5052385;28;20554;-30
2022/11/02 09:23:41;;;;;;;7.32;2.60;;;13.90;99.90;;;;;;5055694;28;20402;-30
2022/11/02 09:26:07;;;;;;;10.00;2.00;;;14.00;99.90;;;;;;5050997;28;20607;-30
2022/11/02 09:28:33;;;;;;;6.93;1.70;;;14.30;99.90;;;;;;5044915;28;20125;-30
2022/11/02 09:30:58;;;;;;;9.13;1.70;;;14.50;99.90;;;;;;5050063;28;20494;-30
2022/11/02 09:33:24;;;;;;;8.65;2.42;;;14.90;99.90;;;;;;5065183;28;20108;-30
2022/11/02 09:35:50;;;;;;;6.57;2.20;;;15.50;99.90;;;;;;5043517;28;20069;-30
2022/11/02 09:38:19;;;;;;;5.05;1.85;;;16.00;99.90;;;;;;5047023;28;20041;-28
2022/11/02 09:40:57;;;;;;;5.10;1.70;;;16.60;99.90;;;;;;5046565;28;20037;-28
2022/11/02 09:43:30;;;;;;;7.90;1.75;;;16.80;99.90;;;;;;5067458;28;20490;-28
2022/11/02 09:46:00;;;;;;;7.55;1.88;;;16.70;99.90;;;;;;5056451;28;20436;-28
2022/11/02 09:48:33;;;;;;;7.60;1.70;;;16.80;99.90;;;;;;5051325;28;20371;-28
2022/11/02 09:51:10;;;;;;;;;;;16.80;99.90;;;;;;5051832;28;20101;-28
2022/11/02 09:53:42;;;;;;;7.43;1.92;;;17.00;99.90;;;;;;5053363;28;19920;-28
2022/11/02 09:56:11;;;;;;;3.67;1.48;;;17.00;99.90;;;;;;5048228;28;20037;-28
2022/11/02 09:58:39;;;;;;;8.38;2.30;;;17.10;99.90;;;;;;5049911;28;20037;-28
2022/11/02 10:01:22;;;;;;;4.57;1.40;;;17.60;99.90;;;;;;5045596;28;20036;-28
2022/11/02 10:04:33;;;;;;;7.07;2.10;;;17.70;99.90;;;;;;5053528;28;20036;-28
2022/11/02 10:07:21;;;;;;;7.50;1.52;;;17.60;99.90;;;;;;5044506;28;20029;-28
2022/11/02 10:09:53;;;;;;;5.75;1.35;;;17.40;99.90;;;;;;5041538;28;20043;-28
2022/11/02 10:12:46;;;;;;;5.95;1.83;;;17.20;99.90;;;;;;5047974;28;20037;-28
2022/11/02 10:15:24;;;;;;;8.87;2.37;;;16.80;99.90;;;;;;5043893;28;20036;-28
2022/11/02 10:17:55;;;;;;;6.03;1.60;;;16.40;99.90;;;;;;5054578;28;20087;-28
2022/11/02 10:20:48;;;;;;;5.70;1.30;;;16.10;99.90;;;;;;5039935;28;20609;-28
2022/11/02 10:23:37;;;;;;;6.15;1.92;;;16.50;99.90;;;;;;5040619;28;20041;-28
2022/11/02 10:26:03;;;;;;;5.80;1.58;;;17.10;99.90;;;;;;5039678;28;20060;-28
2022/11/02 10:28:35;;;;;;;4.13;1.17;;;17.60;99.90;;;;;;5044816;28;20041;-28
2022/11/02 10:31:02;;;;;;;7.20;1.50;;;17.60;99.90;;;;;;5044291;28;20083;-28
2022/11/02 10:33:29;;;;;;;7.35;1.65;;;17.00;99.90;;;;;;5048534;28;20047;-28
2022/11/02 10:36:13;;;;;;;7.20;1.38;;;16.80;99.90;;;;;;5055133;28;20039;-28
2022/11/02 10:39:08;;;;;;;9.57;2.17;;;16.80;99.90;;;;;;5052666;28;20079;-28
2022/11/02 10:41:36;;;;;;;6.32;1.55;;;16.60;99.90;;;;;;5038449;28;20115;-28
2022/11/02 10:44:15;;;;;;;6.43;1.20;;;16.30;99.90;;;;;;5061172;28;20127;-28
2022/11/02 10:47:08;;;;;;;5.75;1.65;;;16.00;99.90;;;;;;5047489;28;20040;-28
2022/11/02 10:49:55;;;;;;;7.13;1.63;;;15.70;99.90;;;;;;5051945;28;20076;-28
2022/11/02 10:52:21;;;;;;;7.75;1.70;;;15.70;99.90;;;;;;5053076;28;20067;-28
2022/11/02 10:54:51;;;;;;;7.55;2.22;;;15.70;99.90;;;;;;5054340;28;20036;-28
2022/11/02 10:57:23;;;;;;;7.95;2.20;;;16.00;99.90;;;;;;5050210;28;20033;-28
2022/11/02 11:00:24;;;;;;;9.60;1.83;;;16.40;99.90;;;;;;5062538;28;20115;-28
2022/11/02 11:03:14;;;;;;;6.70;1.27;;;16.60;99.90;;;;;;5040499;28;20094;-28
2022/11/02 11:05:48;;;;;;;8.73;1.70;;;16.50;99.90;;;;;;5052579;28;20044;-29
2022/11/02 11:08:33;;;;;;;5.95;1.52;;;16.20;99.90;;;;;;5049970;28;20047;-28
2022/11/02 11:11:14;;;;;;;6.22;1.50;;;16.40;99.90;;;;;;5048742;28;20043;-28
2022/11/02 11:13:51;;;;;;;6.40;1.15;;;16.80;99.90;;;;;;5043114;28;20036;-28
2022/11/02 11:16:18;;;;;;;7.18;1.60;;;17.30;99.90;;;;;;5050540;28;20501;-28
2022/11/02 11:18:50;;;;;;;8.68;1.60;;;17.40;99.90;;;;;;5045900;28;20485;-28
2022/11/02 11:21:15;;;;;;;5.20;1.38;;;17.20;99.70;;;;;;5045365;28;20095;-28
2022/11/02 11:23:41;;;;;;;7.13;1.55;;;17.20;99.90;;;;;;5042832;28;20045;-28
2022/11/02 11:26:29;;;;;;;7.35;1.95;;;17.10;99.90;;;;;;5043721;28;20395;-28
2022/11/02 11:28:56;;;;;;;7.53;1.55;;;17.00;99.90;;;;;;5034643;28;20086;-28
2022/11/02 11:31:23;;;;;;;11.15;2.10;;;17.10;99.90;;;;;;5044057;28;20498;-28
2022/11/02 11:33:57;;;;;;;5.68;1.75;;;16.80;99.90;;;;;;5045025;28;20066;-28
2022/11/02 11:36:29;;;;;;;8.27;1.77;;;16.40;99.90;;;;;;5036250;28;20048;-28
2022/11/02 11:39:00;;;;;;;6.93;1.77;;;16.20;99.90;;;;;;5047877;28;20040;-28
2022/11/02 11:41:27;;;;;;;6.65;1.52;;;16.10;99.90;;;;;;5063141;28;20116;-29
2022/11/02 11:43:53;;;;;;;5.63;1.25;;;16.20;99.90;;;;;;5053557;28;20043;-28
2022/11/02 11:46:19;;;;;;;5.32;1.65;;;16.20;99.90;;;;;;5045403;28;20040;-28
2022/11/02 11:48:54;;;;;;;4.40;1.40;;;16.30;99.90;;;;;;5049163;28;20056;-28
2022/11/02 11:51:29;;;;;;;11.45;2.22;;;16.10;99.90;;;;;;5041511;28;20037;-28
2022/11/02 11:54:23;;;;;;;4.88;1.45;;;16.20;99.90;;;;;;5034790;28;20044;-30
2022/11/02 11:56:51;;;;;;;7.18;1.55;;;16.40;99.90;;;;;;5053003;28;20044;-29
2022/11/02 11:59:41;;;;;;;5.88;1.20;;;16.30;99.90;;;;;;5054235;28;20044;-30
2022/11/02 12:02:23;;;;;;;7.78;2.08;;;15.90;99.90;;;;;;5049883;28;20119;-31
2022/11/02 12:04:49;;;;;;;6.82;1.30;;;15.60;99.90;;;;;;5028507;28;20103;-30
2022/11/02 12:07:30;;;;;;;5.03;1.67;;;15.40;99.90;;;;;;5044974;28;20068;-30
2022/11/02 12:10:35;;;;;;;6.53;1.75;;;15.50;99.90;;;;;;5043622;28;20029;-31
2022/11/02 12:13:15;;;;;;;5.40;1.77;;;15.40;99.90;;;;;;4979793;28;20496;-30
2022/11/02 12:16:19;;;;;;;4.25;1.50;;;15.40;99.90;;;;;;4966750;28;20041;-30
2022/11/02 12:18:45;;;;;;;5.35;1.30;;;15.60;99.90;;;;;;4985106;28;20077;-30
2022/11/02 12:21:26;;;;;;;5.22;1.48;;;16.00;99.90;;;;;;4992357;28;20120;-30
2022/11/02 12:23:54;;;;;;;3.42;1.08;;;17.10;99.90;;;;;;5010748;28;20048;-30
2022/11/02 12:26:23;;;;;;;7.18;1.50;;;18.10;97.20;;;;;;5050975;28;20040;-30
2022/11/02 12:29:18;;;;;;;4.03;1.60;;;19.00;92.90;;;;;;5045388;28;20039;-31
2022/11/02 12:32:00;;;;;;;5.55;1.45;;;19.00;80.70;;;;;;5049193;28;20036;-31
2022/11/02 12:34:25;;;;;;;7.28;1.60;;;18.80;89.90;;;;;;5043049;28;20112;-31
2022/11/02 12:37:26;;;;;;;6.03;1.58;;;17.90;92.60;;;;;;5063018;28;20493;-31
2022/11/02 12:40:01;;;;;;;5.88;1.40;;;17.70;96.20;;;;;;5052907;28;20040;-31
2022/11/02 12:42:31;;;;;;;4.47;1.73;;;18.20;93.70;;;;;;5063000;28;20037;-31
2022/11/02 12:45:15;;;;;;;4.35;1.50;;;18.00;93.40;;;;;;5038909;28;20419;-31
2022/11/02 12:47:47;;;;;;;7.40;1.70;;;17.50;92.20;;;;;;5044499;28;20441;-31
2022/11/02 12:50:34;;;;;;;6.20;1.40;;;16.90;98.00;;;;;;5049340;28;20049;-30
2022/11/02 12:53:08;;;;;;;6.25;1.67;;;16.40;99.90;;;;;;5054614;28;20107;-30
2022/11/02 12:55:40;;;;;;;5.50;1.63;;;16.00;99.90;;;;;;5041870;28;20259;-30
2022/11/02 12:58:14;;;;;;;8.25;1.95;;;15.70;99.90;;;;;;5050906;28;20402;-31
2022/11/02 13:00:42;;;;;;;5.50;1.38;;;15.40;99.90;;;;;;5059799;28;20041;-30
2022/11/02 13:03:34;;;;;;;6.93;1.55;;;15.50;99.90;;;;;;5051306;28;20036;-30
2022/11/02 13:06:06;;;;;;;7.47;1.77;;;16.90;99.90;;;;;;5044601;28;20064;-30
2022/11/02 13:08:51;;;;;;;5.57;1.52;;;18.50;96.70;;;;;;5046500;28;20106;-30
2022/11/02 13:11:36;;;;;;;6.25;1.58;;;19.80;94.80;;;;;;5049020;28;20036;-30
2022/11/02 13:14:05;;;;;;;4.72;1.40;;;20.90;66.80;;;;;;5049252;28;20065;-30
2022/11/02 13:17:02;;;;;;;8.50;1.92;;;21.80;70.90;;;;;;5053064;28;20072;-32
2022/11/02 13:19:35;;;;;;;8.38;1.40;;;22.00;66.40;;;;;;5050828;28;20105;-31
2022/11/02 13:22:02;;;;;;;4.73;1.30;;;22.00;60.30;;;;;;5048645;28;20144;-31